Time;durP1;ratioP1;P1;durP2;ratioP2;P2;SDS_P1;SDS_P2;PMS_P1;PMS_P2;Temp;Humidity;BMP_temperature;BMP_pressure;BME280_temperature;BME280_humidity;BME280_pressure;Samples;Min_cycle;Max_cycle;Signal;HPM_P1;HPM_P2
2021/12/20 00:00:20;;;;;;;10.00;7.80;;;6.90;99.90;;;;;;5015660;28;20906;-71
2021/12/20 00:02:51;;;;;;;18.63;7.80;;;6.90;99.90;;;;;;5015228;28;20425;-71
2021/12/20 00:05:19;;;;;;;10.50;7.43;;;6.90;99.90;;;;;;5017730;28;20446;-71
2021/12/20 00:07:44;;;;;;;11.20;7.33;;;6.90;99.90;;;;;;5016247;28;20414;-71
2021/12/20 00:10:10;;;;;;;11.63;7.57;;;7.00;99.90;;;;;;5015491;28;20422;-70
2021/12/20 00:12:36;;;;;;;8.27;7.23;;;7.00;99.90;;;;;;5015838;28;20234;-70
2021/12/20 00:15:02;;;;;;;10.03;8.30;;;7.00;99.90;;;;;;5017009;28;20175;-71
2021/12/20 00:17:28;;;;;;;11.40;6.40;;;7.10;99.90;;;;;;5016493;28;20530;-70
2021/12/20 00:19:53;;;;;;;9.50;6.57;;;7.20;99.90;;;;;;5015923;28;20421;-72
2021/12/20 00:22:19;;;;;;;13.93;6.60;;;7.20;99.90;;;;;;5015675;28;20191;-72
2021/12/20 00:24:44;;;;;;;14.10;7.03;;;7.10;99.90;;;;;;5015329;28;20286;-72
2021/12/20 00:27:12;;;;;;;7.77;5.57;;;7.10;99.90;;;;;;5015228;28;20213;-71
2021/12/20 00:29:37;;;;;;;8.30;6.00;;;7.00;99.90;;;;;;5014456;28;20172;-72
2021/12/20 00:32:04;;;;;;;19.13;7.57;;;7.00;99.90;;;;;;5015706;28;20410;-72
2021/12/20 00:34:30;;;;;;;11.70;6.77;;;7.10;99.90;;;;;;5015398;28;20191;-71
2021/12/20 00:37:04;;;;;;;12.47;6.30;;;7.10;99.90;;;;;;5015191;28;20414;-71
2021/12/20 00:42:14;;;;;;;9.37;7.57;;;7.10;99.90;;;;;;4996025;28;20441;-70
2021/12/20 00:44:40;;;;;;;13.80;7.30;;;7.10;99.90;;;;;;4995517;28;20546;-71
2021/12/20 00:47:06;;;;;;;11.83;7.67;;;7.00;99.90;;;;;;4995175;28;20418;-71
2021/12/20 00:49:31;;;;;;;18.60;8.90;;;7.00;99.90;;;;;;4995749;28;20178;-72
2021/12/20 00:51:57;;;;;;;13.17;7.73;;;7.10;99.90;;;;;;4995401;28;20172;-71
2021/12/20 00:54:22;;;;;;;13.70;9.20;;;7.00;99.90;;;;;;4994910;28;20224;-71
2021/12/20 00:56:49;;;;;;;11.47;8.90;;;7.00;99.90;;;;;;5007905;28;20191;-70
2021/12/20 00:59:15;;;;;;;14.73;7.87;;;6.90;99.90;;;;;;5014170;28;20183;-71
2021/12/20 01:01:41;;;;;;;17.23;9.23;;;6.90;99.90;;;;;;5014091;28;20418;-71
2021/12/20 01:04:07;;;;;;;16.83;9.43;;;6.80;99.90;;;;;;5012884;28;20472;-71
2021/12/20 01:06:33;;;;;;;13.40;9.40;;;6.80;99.90;;;;;;5014097;28;20448;-71
2021/12/20 01:08:59;;;;;;;16.03;9.07;;;6.80;99.90;;;;;;5012912;28;20415;-71
2021/12/20 01:11:27;;;;;;;14.73;8.03;;;6.80;99.90;;;;;;5015125;28;20221;-72
2021/12/20 01:13:53;;;;;;;13.13;8.80;;;6.90;99.90;;;;;;5014379;28;20207;-70
2021/12/20 01:16:29;;;;;;;10.33;7.93;;;7.00;99.90;;;;;;5014818;28;20938;-71
2021/12/20 01:18:55;;;;;;;14.93;8.80;;;7.10;99.90;;;;;;5014265;28;20410;-71
2021/12/20 01:21:20;;;;;;;12.77;7.50;;;7.10;99.90;;;;;;5014519;28;20424;-72
2021/12/20 01:23:46;;;;;;;12.40;8.00;;;7.10;99.90;;;;;;5013593;28;20710;-70
2021/12/20 01:26:11;;;;;;;11.20;7.40;;;7.00;99.90;;;;;;5013098;28;20168;-71
2021/12/20 01:28:37;;;;;;;15.63;7.93;;;6.90;99.90;;;;;;5013867;28;20210;-70
2021/12/20 01:31:02;;;;;;;10.40;6.77;;;6.90;99.90;;;;;;5013936;28;20637;-70
2021/12/20 01:33:28;;;;;;;15.43;7.63;;;7.00;99.90;;;;;;5014497;28;20278;-71
2021/12/20 01:35:56;;;;;;;11.50;7.37;;;7.10;99.90;;;;;;5014534;28;20182;-72
2021/12/20 01:38:22;;;;;;;11.37;6.30;;;7.20;99.90;;;;;;5015136;28;20168;-71
2021/12/20 01:40:48;;;;;;;11.93;6.37;;;7.20;99.90;;;;;;5015104;28;20457;-71
2021/12/20 01:43:16;;;;;;;8.50;6.27;;;7.20;99.90;;;;;;5014415;28;20474;-71
2021/12/20 01:45:41;;;;;;;16.73;6.27;;;7.30;99.90;;;;;;5014319;28;20226;-71
2021/12/20 01:48:10;;;;;;;13.57;6.70;;;7.20;99.90;;;;;;5013959;28;20414;-71
2021/12/20 01:53:13;;;;;;;11.07;6.07;;;7.20;99.90;;;;;;5014337;28;20430;-71
2021/12/20 01:55:38;;;;;;;8.23;5.30;;;7.20;99.90;;;;;;5013801;28;20573;-71
2021/12/20 01:58:04;;;;;;;13.60;5.33;;;7.20;99.90;;;;;;5013320;28;20462;-71
2021/12/20 02:00:30;;;;;;;7.73;5.70;;;7.10;99.90;;;;;;5013074;28;20179;-71
2021/12/20 02:03:01;;;;;;;12.50;5.20;;;7.20;99.90;;;;;;5013485;28;20665;-71
2021/12/20 02:05:48;;;;;;;12.40;5.73;;;7.10;99.90;;;;;;5013792;28;20460;-71
2021/12/20 02:08:28;;;;;;;11.33;5.00;;;7.20;99.90;;;;;;5014536;28;20460;-70
2021/12/20 02:10:56;;;;;;;13.33;5.13;;;7.20;99.90;;;;;;5019417;28;20956;-71
2021/12/20 02:13:24;;;;;;;9.80;4.70;;;7.30;99.90;;;;;;5019470;28;20930;-71
2021/12/20 02:15:50;;;;;;;9.23;4.17;;;7.30;99.90;;;;;;5013732;28;20436;-71
2021/12/20 02:18:16;;;;;;;18.40;5.77;;;7.30;99.90;;;;;;5013806;28;20461;-71
2021/12/20 02:20:42;;;;;;;13.53;4.97;;;7.40;99.90;;;;;;5013332;28;20422;-70
2021/12/20 02:23:08;;;;;;;15.20;5.00;;;7.50;99.90;;;;;;5013273;28;20199;-71
2021/12/20 02:25:35;;;;;;;7.70;4.17;;;7.50;99.90;;;;;;5013290;28;20414;-71
2021/12/20 02:28:09;;;;;;;12.73;4.87;;;7.30;99.90;;;;;;5013077;28;20406;-71
2021/12/20 02:30:42;;;;;;;9.43;3.60;;;7.20;99.90;;;;;;5013568;28;20395;-70
2021/12/20 02:38:37;;;;;;;20.37;4.83;;;7.40;99.90;;;;;;5012977;28;20402;-71
2021/12/20 02:41:09;;;;;;;13.00;4.30;;;7.30;99.90;;;;;;5013093;28;20418;-70
2021/12/20 02:43:39;;;;;;;11.70;3.70;;;7.30;99.90;;;;;;5013290;28;20465;-71
2021/12/20 02:46:28;;;;;;;15.97;3.50;;;7.40;99.90;;;;;;5013489;28;20411;-71
2021/12/20 02:48:55;;;;;;;14.30;4.13;;;7.50;99.90;;;;;;5013791;28;20390;-71
2021/12/20 02:51:23;;;;;;;5.33;3.00;;;7.50;99.90;;;;;;5013547;28;20452;-70
2021/12/20 02:53:50;;;;;;;9.97;3.33;;;7.60;99.90;;;;;;5013841;28;20437;-71
2021/12/20 02:56:16;;;;;;;11.40;3.43;;;7.70;99.90;;;;;;5012591;28;20935;-71
2021/12/20 02:58:42;;;;;;;10.70;3.40;;;7.70;99.90;;;;;;5013396;28;20411;-71
2021/12/20 03:01:08;;;;;;;9.87;3.00;;;7.70;99.90;;;;;;5014925;28;20962;-71
2021/12/20 03:03:34;;;;;;;7.50;2.80;;;7.70;99.90;;;;;;5016934;28;20466;-71
2021/12/20 03:06:06;;;;;;;11.63;3.37;;;7.70;99.90;;;;;;5016522;28;20180;-71
2021/12/20 03:08:31;;;;;;;8.63;3.50;;;7.80;99.90;;;;;;5017419;28;20171;-71
2021/12/20 03:10:57;;;;;;;7.80;2.87;;;7.80;99.90;;;;;;5017264;28;20406;-71
2021/12/20 03:13:23;;;;;;;11.10;4.07;;;7.80;99.90;;;;;;5016451;28;20199;-71
2021/12/20 03:15:48;;;;;;;14.33;3.67;;;7.70;99.90;;;;;;5016707;28;20176;-71
2021/12/20 03:18:14;;;;;;;8.73;3.13;;;7.80;99.90;;;;;;5016718;28;20465;-71
2021/12/20 03:20:41;;;;;;;11.57;3.30;;;7.80;99.90;;;;;;5016664;28;20660;-71
2021/12/20 03:23:07;;;;;;;15.90;3.80;;;7.80;99.90;;;;;;5016523;28;20482;-72
2021/12/20 03:25:32;;;;;;;7.87;3.17;;;7.80;99.90;;;;;;5016428;28;20461;-70
2021/12/20 03:27:58;;;;;;;12.20;3.60;;;7.70;99.90;;;;;;5016163;28;20179;-70
2021/12/20 03:30:25;;;;;;;14.50;3.87;;;7.70;99.90;;;;;;5016554;28;20656;-71
2021/12/20 03:32:50;;;;;;;9.30;3.13;;;7.70;99.90;;;;;;5016508;28;20191;-71
2021/12/20 03:35:16;;;;;;;10.90;3.77;;;7.70;99.90;;;;;;5016517;28;20429;-71
2021/12/20 03:37:42;;;;;;;11.10;4.13;;;7.70;99.90;;;;;;5016572;28;20271;-71
2021/12/20 03:40:08;;;;;;;11.93;3.63;;;7.70;99.90;;;;;;5016695;28;20239;-71
2021/12/20 03:42:34;;;;;;;10.90;3.33;;;7.70;99.90;;;;;;5015586;28;20212;-71
2021/12/20 03:45:00;;;;;;;14.43;4.73;;;7.80;99.90;;;;;;5015146;28;20541;-71
2021/12/20 03:47:25;;;;;;;15.63;4.20;;;7.70;99.90;;;;;;5015539;28;20454;-71
2021/12/20 03:49:51;;;;;;;13.23;3.73;;;7.80;99.90;;;;;;5016301;28;20179;-70
2021/12/20 03:52:16;;;;;;;14.47;4.37;;;7.80;99.90;;;;;;5017055;28;20211;-71
2021/12/20 03:54:42;;;;;;;13.40;3.40;;;7.80;99.90;;;;;;5016301;28;20203;-71
2021/12/20 03:57:07;;;;;;;7.30;3.70;;;7.90;99.90;;;;;;5015598;28;20552;-71
2021/12/20 03:59:34;;;;;;;13.23;3.50;;;7.80;99.90;;;;;;5016260;28;20179;-71
2021/12/20 04:02:00;;;;;;;8.40;3.97;;;7.80;99.90;;;;;;5015291;28;20656;-70
2021/12/20 04:04:25;;;;;;;19.77;3.80;;;7.80;99.90;;;;;;5016680;28;20600;-71
2021/12/20 04:06:51;;;;;;;11.20;3.50;;;7.70;99.90;;;;;;5016708;28;20458;-70
2021/12/20 04:09:17;;;;;;;9.07;3.53;;;7.70;99.90;;;;;;5016012;28;20218;-71
2021/12/20 04:11:42;;;;;;;10.43;3.90;;;7.70;99.90;;;;;;5008830;28;20179;-71
2021/12/20 04:14:08;;;;;;;17.33;4.03;;;7.70;99.90;;;;;;5015357;28;20211;-71
2021/12/20 04:16:36;;;;;;;13.40;3.47;;;7.70;99.90;;;;;;5029408;28;20180;-70
2021/12/20 04:19:02;;;;;;;8.77;3.60;;;7.70;99.90;;;;;;5030934;28;20168;-70
2021/12/20 04:21:28;;;;;;;14.23;3.50;;;7.60;99.90;;;;;;5018695;28;20425;-70
2021/12/20 04:23:53;;;;;;;8.27;2.93;;;7.60;99.90;;;;;;5015976;28;20466;-71
2021/12/20 04:26:19;;;;;;;14.47;4.53;;;7.70;99.90;;;;;;5014786;28;20190;-71
2021/12/20 04:28:45;;;;;;;9.17;3.17;;;7.60;99.90;;;;;;5015576;28;20226;-71
2021/12/20 04:31:10;;;;;;;14.97;3.90;;;7.60;99.90;;;;;;5015322;28;20694;-71
2021/12/20 04:33:36;;;;;;;13.80;4.93;;;7.60;99.90;;;;;;5015407;28;20656;-71
2021/12/20 04:36:01;;;;;;;19.07;4.50;;;7.60;99.90;;;;;;5015718;28;20195;-71
2021/12/20 04:38:29;;;;;;;9.23;3.60;;;7.60;99.90;;;;;;5016191;28;20640;-71
2021/12/20 04:40:55;;;;;;;11.93;4.27;;;7.60;99.90;;;;;;5015141;28;20548;-71
2021/12/20 04:43:20;;;;;;;11.43;4.67;;;7.50;99.90;;;;;;5015373;28;20473;-70
2021/12/20 04:45:46;;;;;;;10.40;4.47;;;7.40;99.90;;;;;;5029444;23;20557;-69
2021/12/20 04:48:12;;;;;;;9.87;2.93;;;7.40;99.90;;;;;;4997808;28;20176;-67
2021/12/20 04:50:38;;;;;;;10.80;3.73;;;7.50;99.90;;;;;;4994772;28;20192;-67
2021/12/20 04:53:05;;;;;;;14.23;3.63;;;7.60;99.90;;;;;;5011240;28;20183;-68
2021/12/20 04:55:31;;;;;;;10.33;3.60;;;7.60;99.90;;;;;;5014140;28;20415;-68
2021/12/20 04:57:57;;;;;;;11.33;4.00;;;7.60;99.90;;;;;;5021259;28;20421;-68
2021/12/20 05:00:29;;;;;;;14.33;4.23;;;7.50;99.90;;;;;;5016369;28;20203;-68
2021/12/20 05:02:55;;;;;;;12.73;3.80;;;7.40;99.90;;;;;;5013722;28;20799;-69
2021/12/20 05:05:21;;;;;;;7.70;2.70;;;7.40;99.90;;;;;;5008247;28;20467;-68
2021/12/20 05:07:47;;;;;;;9.40;3.30;;;7.40;99.90;;;;;;5008432;28;20241;-68
2021/12/20 05:10:24;;;;;;;10.60;5.10;;;7.50;99.90;;;;;;5012280;28;21132;-68
2021/12/20 05:12:51;;;;;;;19.17;6.40;;;7.40;99.90;;;;;;5012875;28;20441;-68
2021/12/20 05:15:17;;;;;;;7.17;3.83;;;7.50;99.90;;;;;;5003411;28;20454;-68
2021/12/20 05:17:43;;;;;;;13.23;3.73;;;7.60;99.90;;;;;;5012491;28;20411;-69
2021/12/20 05:20:09;;;;;;;11.33;3.20;;;7.50;99.90;;;;;;5013747;28;20176;-68
2021/12/20 05:22:34;;;;;;;7.70;3.50;;;7.50;99.90;;;;;;5016051;28;20174;-68
2021/12/20 05:25:00;;;;;;;9.57;3.30;;;7.60;99.90;;;;;;5015792;28;20455;-68
2021/12/20 05:27:25;;;;;;;10.17;4.53;;;7.60;99.90;;;;;;5013202;28;20180;-68
2021/12/20 05:29:51;;;;;;;14.63;3.93;;;7.60;99.90;;;;;;5014373;28;20264;-69
2021/12/20 05:32:17;;;;;;;8.23;4.10;;;7.40;99.90;;;;;;5014445;28;20408;-68
2021/12/20 05:34:42;;;;;;;22.37;5.50;;;7.50;99.90;;;;;;5014198;28;20195;-69
2021/12/20 05:37:08;;;;;;;11.83;3.70;;;7.50;99.90;;;;;;5016272;28;20557;-69
2021/12/20 05:39:33;;;;;;;10.10;3.43;;;7.60;99.90;;;;;;5016254;28;20787;-69
2021/12/20 05:41:59;;;;;;;10.53;3.70;;;7.50;99.90;;;;;;5016713;28;20240;-69
2021/12/20 05:44:25;;;;;;;16.63;4.20;;;7.50;99.90;;;;;;5014869;28;20282;-68
2021/12/20 05:46:52;;;;;;;12.63;3.57;;;7.40;99.90;;;;;;5013847;28;20179;-68
2021/12/20 05:49:18;;;;;;;11.87;3.77;;;7.40;99.90;;;;;;5013387;28;20171;-68
2021/12/20 05:51:43;;;;;;;9.73;4.30;;;7.40;99.90;;;;;;5016143;28;20470;-67
2021/12/20 05:54:09;;;;;;;12.83;3.60;;;7.50;99.90;;;;;;5015459;28;20203;-68
2021/12/20 05:56:34;;;;;;;22.90;4.77;;;7.40;99.90;;;;;;5015447;28;20179;-68
2021/12/20 05:59:00;;;;;;;11.93;5.00;;;7.50;99.90;;;;;;5017710;28;20198;-67
2021/12/20 06:01:25;;;;;;;14.13;3.47;;;7.50;99.90;;;;;;5019895;28;20179;-68
2021/12/20 06:03:51;;;;;;;15.30;5.00;;;7.50;99.90;;;;;;5019613;28;20218;-68
2021/12/20 06:06:17;;;;;;;15.70;4.43;;;7.50;99.90;;;;;;5018892;28;20179;-70
2021/12/20 06:08:42;;;;;;;15.07;4.23;;;7.50;99.90;;;;;;5017414;28;20176;-68
2021/12/20 06:11:08;;;;;;;11.87;3.53;;;7.40;99.90;;;;;;5015195;28;20175;-68
2021/12/20 06:13:33;;;;;;;16.50;4.90;;;7.40;99.90;;;;;;5015879;28;20614;-68
2021/12/20 06:15:59;;;;;;;14.23;3.67;;;7.40;99.90;;;;;;5015766;28;20600;-69
2021/12/20 06:18:24;;;;;;;14.87;4.20;;;7.30;99.90;;;;;;5022163;28;20183;-69
2021/12/20 06:20:50;;;;;;;16.57;5.43;;;7.20;99.90;;;;;;5022126;28;20190;-69
2021/12/20 06:23:15;;;;;;;13.87;4.30;;;7.20;99.90;;;;;;5026221;28;20594;-69
2021/12/20 06:25:41;;;;;;;16.97;5.13;;;7.10;99.90;;;;;;5020134;28;20717;-68
2021/12/20 06:28:06;;;;;;;15.30;4.40;;;7.10;99.90;;;;;;5023803;28;20179;-68
2021/12/20 06:30:32;;;;;;;19.30;5.37;;;7.00;99.90;;;;;;5019797;28;20695;-68
2021/12/20 06:32:57;;;;;;;17.67;5.60;;;7.00;99.90;;;;;;5020581;28;20175;-69
2021/12/20 06:35:23;;;;;;;18.87;5.53;;;6.80;99.90;;;;;;5013883;28;20195;-68
2021/12/20 06:38:00;;;;;;;21.10;5.73;;;6.80;99.90;;;;;;5018111;28;20172;-68
2021/12/20 06:40:27;;;;;;;18.40;6.90;;;6.80;99.90;;;;;;5016217;28;20226;-69
2021/12/20 06:42:52;;;;;;;16.17;6.13;;;6.80;99.90;;;;;;5017292;28;20961;-68
2021/12/20 06:45:18;;;;;;;26.30;6.73;;;6.80;99.90;;;;;;5015362;28;20508;-68
2021/12/20 06:47:43;;;;;;;23.20;7.10;;;6.80;99.90;;;;;;5016796;28;20171;-69
2021/12/20 06:50:09;;;;;;;16.10;7.00;;;6.70;99.90;;;;;;4998839;28;20187;-68
2021/12/20 06:52:35;;;;;;;15.80;6.90;;;6.70;99.90;;;;;;5017207;28;20588;-69
2021/12/20 06:55:01;;;;;;;16.87;7.60;;;6.60;99.90;;;;;;5015432;28;20487;-68
2021/12/20 06:57:26;;;;;;;20.83;8.00;;;6.50;99.90;;;;;;5016769;28;20210;-68
2021/12/20 06:59:53;;;;;;;22.43;8.67;;;6.40;99.90;;;;;;5015403;28;20208;-68
2021/12/20 07:02:18;;;;;;;20.20;6.97;;;6.40;99.90;;;;;;5016752;28;20418;-68
2021/12/20 07:04:44;;;;;;;17.17;6.73;;;6.50;99.90;;;;;;5016426;28;20238;-68
2021/12/20 07:07:09;;;;;;;17.87;7.10;;;6.50;99.90;;;;;;5016836;28;20178;-68
2021/12/20 07:09:35;;;;;;;24.47;8.00;;;6.50;99.90;;;;;;5016687;28;20246;-68
2021/12/20 07:12:03;;;;;;;15.70;6.60;;;6.50;99.90;;;;;;5016213;28;20187;-68
2021/12/20 07:14:29;;;;;;;22.13;6.93;;;6.40;99.90;;;;;;5016857;28;20247;-68
2021/12/20 07:16:55;;;;;;;17.07;8.13;;;6.30;99.90;;;;;;5016939;28;20450;-68
2021/12/20 07:19:21;;;;;;;17.67;7.00;;;6.20;99.90;;;;;;5016909;28;20410;-68
2021/12/20 07:21:47;;;;;;;23.77;7.73;;;6.10;99.90;;;;;;5016646;28;20410;-68
2021/12/20 07:24:12;;;;;;;17.90;7.13;;;6.00;99.90;;;;;;5016958;28;20203;-68
2021/12/20 07:26:41;;;;;;;21.60;7.20;;;5.80;99.90;;;;;;5016285;28;20421;-67
2021/12/20 07:29:07;;;;;;;24.57;7.50;;;5.70;99.90;;;;;;5016705;28;20179;-69
2021/12/20 07:31:33;;;;;;;24.83;7.30;;;5.60;99.90;;;;;;5016574;28;20813;-68
2021/12/20 07:33:59;;;;;;;17.53;6.60;;;5.60;99.90;;;;;;5015991;28;20458;-68
2021/12/20 07:36:25;;;;;;;12.30;5.50;;;5.60;99.90;;;;;;5016550;28;20416;-68
2021/12/20 07:38:51;;;;;;;16.43;6.93;;;5.50;99.90;;;;;;5015797;28;20200;-68
2021/12/20 07:41:18;;;;;;;15.53;6.33;;;5.50;99.90;;;;;;5016676;28;20891;-68
2021/12/20 07:43:44;;;;;;;12.50;5.73;;;5.60;99.90;;;;;;5016184;28;20590;-67
2021/12/20 07:46:10;;;;;;;20.67;6.67;;;5.60;99.90;;;;;;5015430;28;20481;-69
2021/12/20 07:48:35;;;;;;;16.40;5.23;;;5.70;99.90;;;;;;5015723;28;20911;-68
2021/12/20 07:51:01;;;;;;;13.10;5.20;;;5.70;99.90;;;;;;5015686;28;20167;-68
2021/12/20 07:53:27;;;;;;;17.50;6.23;;;5.80;99.90;;;;;;5014130;28;20210;-67
2021/12/20 07:55:53;;;;;;;21.83;6.37;;;5.80;99.90;;;;;;5014959;28;20484;-68
2021/12/20 07:58:20;;;;;;;14.20;5.57;;;5.80;99.90;;;;;;5015391;28;20183;-68
2021/12/20 08:00:46;;;;;;;19.73;5.77;;;5.80;99.90;;;;;;5014467;28;20176;-69
2021/12/20 08:03:12;;;;;;;22.70;5.50;;;5.80;99.90;;;;;;5016109;28;20429;-69
2021/12/20 08:05:38;;;;;;;17.97;6.10;;;5.90;99.90;;;;;;5013264;28;21282;-68
2021/12/20 08:08:03;;;;;;;16.07;7.07;;;5.80;99.90;;;;;;5017363;28;20175;-68
2021/12/20 08:10:29;;;;;;;23.00;9.40;;;5.80;99.90;;;;;;5017936;28;20219;-68
2021/12/20 08:12:55;;;;;;;20.27;7.33;;;5.80;99.90;;;;;;5015272;28;20451;-68
2021/12/20 08:15:21;;;;;;;17.63;6.70;;;5.80;99.90;;;;;;5014561;28;20195;-68
2021/12/20 08:17:48;;;;;;;15.97;6.10;;;5.80;99.90;;;;;;5015179;28;20176;-69
2021/12/20 08:20:14;;;;;;;15.03;5.77;;;5.80;99.90;;;;;;5014711;28;20448;-68
2021/12/20 08:22:39;;;;;;;18.47;6.27;;;5.80;99.90;;;;;;5014710;28;20506;-68
2021/12/20 08:25:06;;;;;;;18.13;5.50;;;5.80;99.90;;;;;;5015450;28;20211;-68
2021/12/20 08:27:32;;;;;;;11.70;5.87;;;5.80;99.90;;;;;;5014331;28;20778;-68
2021/12/20 08:29:58;;;;;;;15.63;6.57;;;5.80;99.90;;;;;;5015134;28;20414;-68
2021/12/20 08:32:24;;;;;;;15.90;6.53;;;5.90;99.90;;;;;;5014910;28;20768;-68
2021/12/20 08:34:50;;;;;;;20.00;6.23;;;5.80;99.90;;;;;;5014137;28;20202;-67
2021/12/20 08:37:15;;;;;;;17.00;7.03;;;5.90;99.90;;;;;;5013842;28;20430;-67
2021/12/20 08:39:41;;;;;;;20.17;7.03;;;5.90;99.90;;;;;;5014937;28;20200;-68
2021/12/20 08:42:07;;;;;;;20.90;6.43;;;5.90;99.90;;;;;;5014488;28;20179;-68
2021/12/20 08:44:33;;;;;;;15.17;7.20;;;5.90;99.90;;;;;;5014257;28;20470;-68
2021/12/20 08:46:59;;;;;;;21.87;7.90;;;5.90;99.90;;;;;;5014451;28;20531;-68
2021/12/20 08:49:25;;;;;;;16.10;6.93;;;5.80;99.90;;;;;;5014517;28;20581;-68
2021/12/20 08:51:51;;;;;;;24.63;7.40;;;5.80;99.90;;;;;;5018792;28;20422;-68
2021/12/20 08:54:17;;;;;;;19.10;6.80;;;5.80;99.90;;;;;;5024182;28;20430;-68
2021/12/20 08:56:43;;;;;;;23.50;8.40;;;5.80;99.90;;;;;;5016896;28;20234;-68
2021/12/20 08:59:09;;;;;;;19.93;7.63;;;5.80;99.90;;;;;;5017257;28;20653;-68
2021/12/20 09:01:35;;;;;;;14.33;7.43;;;5.80;99.90;;;;;;5014922;28;20446;-68
2021/12/20 09:04:03;;;;;;;15.97;6.97;;;5.80;99.90;;;;;;5016823;28;20447;-68
2021/12/20 09:06:29;;;;;;;18.40;7.20;;;5.80;99.90;;;;;;5014288;28;20413;-68
2021/12/20 09:08:55;;;;;;;18.50;7.90;;;5.70;99.90;;;;;;5014987;28;20931;-68
2021/12/20 09:11:28;;;;;;;26.67;8.00;;;5.70;99.90;;;;;;5014184;28;20182;-68
2021/12/20 09:13:54;;;;;;;36.63;8.13;;;5.80;99.90;;;;;;5016321;28;20427;-68
2021/12/20 09:16:19;;;;;;;17.10;8.20;;;5.80;99.90;;;;;;5016691;28;20417;-70
2021/12/20 09:18:45;;;;;;;22.17;7.47;;;5.80;99.90;;;;;;5015484;28;20411;-68
2021/12/20 09:21:11;;;;;;;22.13;7.53;;;5.80;99.90;;;;;;5014723;28;20172;-69
2021/12/20 09:23:38;;;;;;;16.97;8.47;;;5.80;99.90;;;;;;5014475;28;20499;-68
2021/12/20 09:26:04;;;;;;;20.27;7.00;;;5.80;99.90;;;;;;5009604;28;20449;-69
2021/12/20 09:28:30;;;;;;;25.30;8.60;;;5.80;99.90;;;;;;5013027;28;20477;-69
2021/12/20 09:30:55;;;;;;;18.80;7.37;;;5.90;99.90;;;;;;5014463;28;20521;-69
2021/12/20 09:33:21;;;;;;;13.67;6.97;;;5.90;99.90;;;;;;5011994;28;20951;-68
2021/12/20 09:35:50;;;;;;;18.70;7.50;;;5.90;99.90;;;;;;5013334;28;20908;-68
2021/12/20 09:38:17;;;;;;;16.70;7.60;;;5.90;99.90;;;;;;5014144;28;20504;-68
2021/12/20 09:41:01;;;;;;;14.07;7.10;;;6.00;99.90;;;;;;5014508;28;20414;-68
2021/12/20 09:43:28;;;;;;;24.83;8.07;;;6.00;99.90;;;;;;5012165;28;20414;-68
2021/12/20 09:45:56;;;;;;;20.53;8.60;;;6.00;99.90;;;;;;5014037;28;20545;-68
2021/12/20 09:48:22;;;;;;;24.20;8.50;;;6.10;99.90;;;;;;5014441;28;20505;-68
2021/12/20 09:50:47;;;;;;;21.07;7.43;;;6.10;99.90;;;;;;5014806;28;20773;-68
2021/12/20 09:53:14;;;;;;;23.53;8.60;;;6.20;99.90;;;;;;5014344;28;20409;-68
2021/12/20 09:55:47;;;;;;;17.43;7.20;;;6.20;99.90;;;;;;5014907;28;20326;-68
2021/12/20 09:58:12;;;;;;;21.00;8.23;;;6.20;99.90;;;;;;5017467;28;20413;-70
2021/12/20 10:00:38;;;;;;;19.90;7.57;;;6.30;99.90;;;;;;5018179;28;20438;-69
2021/12/20 10:03:04;;;;;;;21.00;8.60;;;6.30;99.90;;;;;;5009382;28;20176;-67
2021/12/20 10:05:31;;;;;;;28.20;10.67;;;6.40;99.90;;;;;;4997161;28;20570;-68
2021/12/20 10:07:58;;;;;;;26.00;10.90;;;6.40;99.90;;;;;;4996994;28;20794;-69
2021/12/20 10:10:40;;;;;;;20.70;10.50;;;6.40;99.90;;;;;;4994908;28;20419;-68
2021/12/20 10:13:07;;;;;;;19.47;10.17;;;6.50;99.90;;;;;;4997119;28;20419;-68
2021/12/20 10:15:38;;;;;;;25.93;8.40;;;6.60;99.90;;;;;;5013283;28;20588;-69
2021/12/20 10:18:10;;;;;;;18.27;9.30;;;6.60;99.90;;;;;;5019688;28;20418;-68
2021/12/20 10:20:36;;;;;;;20.30;9.20;;;6.70;99.90;;;;;;5015982;28;20417;-68
2021/12/20 10:23:19;;;;;;;14.17;7.50;;;6.70;99.90;;;;;;5014269;28;20891;-69
2021/12/20 10:25:47;;;;;;;18.83;8.73;;;6.80;99.90;;;;;;5013512;28;20209;-68
2021/12/20 10:28:18;;;;;;;28.73;8.17;;;6.90;99.90;;;;;;5016505;28;20485;-69
2021/12/20 10:30:50;;;;;;;16.10;7.90;;;6.90;99.90;;;;;;5015038;28;20414;-68
2021/12/20 10:33:19;;;;;;;18.30;8.40;;;7.00;99.90;;;;;;5014251;28;20414;-69
2021/12/20 10:35:48;;;;;;;13.07;7.23;;;7.00;99.90;;;;;;5014486;28;20422;-69
2021/12/20 10:38:21;;;;;;;17.17;7.37;;;7.10;99.90;;;;;;5014452;28;20406;-69
2021/12/20 10:40:50;;;;;;;14.63;6.77;;;7.20;99.90;;;;;;5000933;28;20491;-69
2021/12/20 10:43:22;;;;;;;16.83;7.13;;;7.20;99.90;;;;;;4995485;28;20966;-67
2021/12/20 10:45:49;;;;;;;14.13;7.03;;;7.20;99.90;;;;;;4993995;28;20499;-68
2021/12/20 10:48:15;;;;;;;13.77;6.10;;;7.30;99.90;;;;;;4996050;28;20407;-67
2021/12/20 10:50:44;;;;;;;10.43;6.03;;;7.30;99.90;;;;;;5015235;23;20486;-70
2021/12/20 10:53:17;;;;;;;17.43;7.60;;;7.30;99.90;;;;;;5006073;28;20179;-72
2021/12/20 10:55:52;;;;;;;18.03;7.10;;;7.40;99.90;;;;;;5011943;28;20386;-72
2021/12/20 10:58:31;;;;;;;14.73;6.60;;;7.40;99.90;;;;;;5010393;28;20401;-71
2021/12/20 11:04:12;;;;;;;11.60;6.20;;;7.50;99.90;;;;;;5010279;28;20880;-70
2021/12/20 11:09:18;;;;;;;11.10;3.93;;;7.60;99.90;;;;;;5011339;28;20504;-70
2021/12/20 11:11:47;;;;;;;5.00;3.20;;;7.60;99.90;;;;;;5011142;28;20421;-71
2021/12/20 11:14:13;;;;;;;5.70;3.27;;;7.70;99.90;;;;;;5011160;28;20422;-71
2021/12/20 11:16:45;;;;;;;7.23;3.50;;;7.70;99.90;;;;;;5011341;28;20469;-70
2021/12/20 11:19:26;;;;;;;2.13;1.80;;;7.80;99.90;;;;;;5011309;28;20450;-71
2021/12/20 11:22:36;;;;;;;6.70;2.67;;;7.80;99.30;;;;;;5011782;28;20896;-71
2021/12/20 11:25:06;;;;;;;5.53;2.37;;;7.80;97.90;;;;;;4973567;28;20470;-71
2021/12/20 11:27:38;;;;;;;3.03;2.23;;;7.90;97.90;;;;;;4973562;28;20864;-70
2021/12/20 11:30:16;;;;;;;4.83;2.50;;;7.90;97.20;;;;;;4973541;28;20439;-72
2021/12/20 11:32:43;;;;;;;5.40;2.80;;;8.00;97.30;;;;;;4970781;28;20416;-71
2021/12/20 11:35:09;;;;;;;3.23;2.03;;;8.00;96.70;;;;;;4971519;28;21109;-72
2021/12/20 11:37:35;;;;;;;3.50;1.77;;;8.10;96.30;;;;;;4974598;28;20420;-72
2021/12/20 11:40:06;;;;;;;6.70;2.17;;;8.10;94.90;;;;;;4974986;28;20193;-70
2021/12/20 11:42:31;;;;;;;1.50;1.30;;;8.10;94.10;;;;;;4973906;28;20417;-72
2021/12/20 11:45:02;;;;;;;3.57;1.80;;;8.10;94.20;;;;;;4974397;28;21211;-71
2021/12/20 11:47:35;;;;;;;4.90;1.80;;;8.20;93.90;;;;;;4974177;28;20215;-72
2021/12/20 11:50:08;;;;;;;3.20;1.80;;;8.30;93.30;;;;;;4974357;28;20834;-71
2021/12/20 11:52:41;;;;;;;3.80;1.80;;;8.20;92.40;;;;;;4973649;28;20420;-71
2021/12/20 11:55:28;;;;;;;3.00;2.07;;;8.20;91.60;;;;;;4982518;28;20427;-71
2021/12/20 11:58:15;;;;;;;8.57;3.00;;;8.10;91.50;;;;;;5011461;28;20499;-73
2021/12/20 12:00:48;;;;;;;3.03;1.50;;;8.20;91.80;;;;;;5015101;28;20798;-70
2021/12/20 12:03:19;;;;;;;5.03;1.83;;;8.30;91.80;;;;;;5015199;28;20454;-70
2021/12/20 12:05:53;;;;;;;3.90;2.53;;;8.30;91.70;;;;;;5014364;28;20512;-70
2021/12/20 12:08:35;;;;;;;3.50;1.77;;;8.40;91.70;;;;;;5014248;28;20458;-69
2021/12/20 12:11:07;;;;;;;2.40;1.37;;;8.40;91.40;;;;;;5014346;28;20841;-70
2021/12/20 12:16:29;;;;;;;3.23;1.60;;;8.40;90.50;;;;;;5013598;28;20442;-70
2021/12/20 12:18:58;;;;;;;5.20;1.37;;;8.40;89.20;;;;;;5013608;28;20488;-71
2021/12/20 12:21:38;;;;;;;3.77;1.90;;;8.40;88.80;;;;;;5014438;28;20474;-71
2021/12/20 12:24:10;;;;;;;2.47;1.90;;;8.40;88.80;;;;;;5014379;28;20457;-70
2021/12/20 12:26:43;;;;;;;3.43;1.50;;;8.40;88.00;;;;;;5013816;28;20428;-69
2021/12/20 12:29:17;;;;;;;1.70;1.60;;;8.40;87.80;;;;;;5014508;28;20411;-71
2021/12/20 12:31:57;;;;;;;1.47;1.37;;;8.40;86.80;;;;;;5014437;28;20438;-70
2021/12/20 12:34:40;;;;;;;2.60;1.37;;;8.30;85.70;;;;;;5013749;28;20474;-69
2021/12/20 12:37:36;;;;;;;2.90;1.30;;;8.30;85.30;;;;;;5014370;28;20501;-69
2021/12/20 12:40:26;;;;;;;3.13;1.30;;;8.30;85.70;;;;;;5013204;28;20532;-69
2021/12/20 12:42:55;;;;;;;1.90;1.50;;;8.30;85.40;;;;;;5014725;28;20502;-70
2021/12/20 12:45:54;;;;;;;3.33;1.43;;;8.10;83.40;;;;;;5013525;28;20450;-69
2021/12/20 12:48:40;;;;;;;2.90;1.10;;;8.10;84.70;;;;;;5012735;28;20417;-70
2021/12/20 12:51:26;;;;;;;2.97;1.63;;;8.10;85.40;;;;;;5013825;28;20454;-70
2021/12/20 12:53:53;;;;;;;4.83;1.60;;;8.10;86.10;;;;;;5014155;28;20432;-71
2021/12/20 12:56:28;;;;;;;2.83;1.50;;;8.10;85.50;;;;;;5013735;28;20407;-71
2021/12/20 12:59:12;;;;;;;1.63;1.23;;;8.10;85.50;;;;;;5014096;28;20496;-70
2021/12/20 13:01:39;;;;;;;2.43;1.50;;;8.10;86.20;;;;;;5013601;28;20429;-70
2021/12/20 13:04:05;;;;;;;3.80;2.23;;;8.10;86.40;;;;;;5014446;28;20458;-71
2021/12/20 13:06:31;;;;;;;3.27;1.50;;;8.10;86.40;;;;;;5014987;28;20410;-70
2021/12/20 13:08:59;;;;;;;4.93;1.83;;;8.00;85.10;;;;;;5012789;28;20225;-68
2021/12/20 13:11:26;;;;;;;2.80;1.40;;;8.00;85.50;;;;;;5011791;28;20198;-70
2021/12/20 13:14:16;;;;;;;3.47;1.57;;;7.90;85.40;;;;;;5018925;28;20775;-70